Bennington, VT

5:57 PM EST on December 25, 2014 (GMT -0500)
Harriman And West | Change Station
CLOSE
Current Station
Airport
Location: North Adams,
Elevation: 653 ft
Nearby Weather Stations

Elev 653 ft 42.70 °N, 73.17 °W | Updated 5 minutes ago

Overcast
Overcast
44 °F
Feels Like 35 °F
N
22
Wind Variable Wind from West
Gusts 31 mph

Today
High -- | Low -- °F
--% Chance of Precip.
Yesterday
High -- | Low -- °F
Precip. -- in
7:22 AM 4:23 PM
Waxing Crescent, 20% visible
Pressure 29.86 in
Visibility 10.0 miles
Clouds Overcast 4500 ft
Windchill 35 °F
Dew Point 29 °F
Humidity 55%
Rainfall 0.23 in
Snow Depth Not available.
UV 0 out of 12
Pollen .10 out of 12
Air Quality Not available.
Flu Activity Not available.
METAR KAQW 252252Z AUTO 27019G27KT 10SM OVC045 07/M02 A2985 RMK AO2 PK WND 26027/2250 SLP112 T00671017

More Conditions Fewer Conditions

Pressure 29.86 in
Visibility 10.0 miles
Clouds Overcast 4500 ft
Windchill 35 °F
Dew Point 29 °F
Humidity 55%
Rainfall 0.23 in
Snow Depth Not available.
UV 0 out of 12
Pollen .10 out of 12
Air Quality Not available.
Flu Activity Not available.
METAR KAQW 252252Z AUTO 27019G27KT 10SM OVC045 07/M02 A2985 RMK AO2 PK WND 26027/2250 SLP112 T00671017

More Conditions Fewer Conditions

10-Day Weather Forecast

Almanac

Astronomy

Dec. 25, 2014 Rise Set
Actual Time
Civil Twilight
Nautical Twilight
Astronomical Twilight
Moon
Length of Visible Light
Length of Day
Tomorrow will be .
, % of the Moon is Illuminated

Today's Extremes

State Highs State Lows

Community

WunderPhotos

Upload Photos

1,780,431 photos uploaded!

WunderBlogs® & News

Nearby

Air Quality

  Air Quality AQ Index Pollutant
Not available.

Snow Depth

Station Depth Elevation

Earthquake Activity

City Distance Mag. Time & Date
Minimum magnitude displayed is 2.5.

Coastal Water Temperatures

Place Temperature

Nearby Weather Stations